Time;durP1;ratioP1;P1;durP2;ratioP2;P2;SDS_P1;SDS_P2;PMS_P1;PMS_P2;Temp;Humidity;BMP_temperature;BMP_pressure;BME280_temperature;BME280_humidity;BME280_pressure;Samples;Min_cycle;Max_cycle;Signal;HPM_P1;HPM_P2
2022/06/07 00:00:52;;;;;;;1.23;1.10;;;19.10;95.10;;;;;;5057048;28;20985;-67
2022/06/07 00:03:19;;;;;;;1.30;1.20;;;19.10;95.10;;;;;;5077713;28;20534;-68
2022/06/07 00:05:45;;;;;;;1.90;1.20;;;19.00;95.10;;;;;;5069453;28;20268;-69
2022/06/07 00:08:12;;;;;;;0.97;0.93;;;19.00;95.10;;;;;;5070235;28;20511;-68
2022/06/07 00:10:38;;;;;;;4.33;1.43;;;19.00;95.60;;;;;;5055613;28;20527;-68
2022/06/07 00:13:04;;;;;;;1.40;1.30;;;18.90;95.20;;;;;;5065374;28;20536;-68
2022/06/07 00:15:30;;;;;;;1.13;1.03;;;18.90;95.20;;;;;;5070963;28;20456;-69
2022/06/07 00:17:56;;;;;;;2.80;1.00;;;18.90;95.30;;;;;;5054051;28;20454;-68
2022/06/07 00:20:22;;;;;;;1.10;1.10;;;18.90;95.40;;;;;;5065137;28;20703;-68
2022/06/07 00:22:48;;;;;;;1.00;1.00;;;18.80;95.30;;;;;;5049819;28;20228;-68
2022/06/07 00:25:15;;;;;;;1.10;1.10;;;18.80;95.40;;;;;;5055300;28;20219;-69
2022/06/07 00:27:42;;;;;;;1.33;1.07;;;18.70;95.60;;;;;;5086110;28;20226;-68
2022/06/07 00:30:09;;;;;;;1.10;1.10;;;18.70;95.50;;;;;;5091529;28;20510;-68
2022/06/07 00:32:35;;;;;;;1.40;1.30;;;18.70;95.50;;;;;;5085649;28;20461;-69
2022/06/07 00:35:02;;;;;;;0.90;0.90;;;18.70;95.60;;;;;;5069364;28;20458;-71
2022/06/07 00:37:28;;;;;;;1.30;1.20;;;18.60;95.70;;;;;;5076843;28;20219;-68
2022/06/07 00:39:54;;;;;;;2.13;1.47;;;18.60;95.70;;;;;;5074924;28;20835;-68
2022/06/07 00:42:19;;;;;;;1.13;1.07;;;18.50;95.70;;;;;;5052939;28;20695;-68
2022/06/07 00:44:46;;;;;;;0.93;0.93;;;18.50;95.70;;;;;;5069915;28;20223;-68
2022/06/07 00:47:15;;;;;;;1.20;1.20;;;18.40;95.90;;;;;;5076739;28;20226;-70
2022/06/07 00:49:59;;;;;;;2.00;0.90;;;18.50;95.90;;;;;;5073097;28;20496;-68
2022/06/07 00:52:27;;;;;;;1.00;1.00;;;18.50;95.90;;;;;;5069967;28;20874;-68
2022/06/07 00:54:56;;;;;;;1.10;1.10;;;18.40;95.70;;;;;;5074039;28;20453;-68
2022/06/07 00:57:35;;;;;;;1.30;1.20;;;18.40;95.80;;;;;;5072351;28;20492;-68
2022/06/07 01:00:10;;;;;;;1.30;1.20;;;18.40;95.90;;;;;;5073048;28;20457;-68
2022/06/07 01:02:36;;;;;;;1.47;1.37;;;18.40;95.80;;;;;;5071824;28;20457;-69
2022/06/07 01:05:03;;;;;;;1.63;1.07;;;18.40;95.90;;;;;;5075456;28;20454;-69
2022/06/07 01:13:00;;;;;;;2.03;1.00;;;18.30;95.90;;;;;;5070274;28;20469;-68
2022/06/07 01:15:28;;;;;;;1.10;1.10;;;18.40;95.90;;;;;;5068317;28;20460;-68
2022/06/07 01:17:56;;;;;;;0.97;0.97;;;18.30;95.90;;;;;;5068710;28;20449;-68
2022/06/07 01:20:23;;;;;;;1.80;1.13;;;18.40;95.90;;;;;;5061696;28;20446;-69
2022/06/07 01:22:49;;;;;;;1.03;1.00;;;18.30;95.90;;;;;;5063975;28;20452;-67
2022/06/07 01:25:15;;;;;;;2.20;1.20;;;18.30;95.90;;;;;;5068510;28;20302;-69
2022/06/07 01:27:41;;;;;;;1.17;1.07;;;18.30;95.90;;;;;;5080418;28;20920;-68
2022/06/07 01:30:07;;;;;;;2.27;1.33;;;18.30;95.90;;;;;;5072580;28;20715;-69
2022/06/07 01:32:33;;;;;;;1.30;1.20;;;18.30;95.90;;;;;;5068387;28;20218;-69
2022/06/07 01:34:59;;;;;;;1.03;0.93;;;18.30;96.00;;;;;;5065281;28;20473;-67
2022/06/07 01:37:25;;;;;;;1.53;1.20;;;18.30;96.40;;;;;;5065803;28;20226;-67
2022/06/07 01:42:35;;;;;;;1.00;1.00;;;18.30;96.10;;;;;;5089169;28;20644;-67
2022/06/07 01:45:02;;;;;;;1.30;1.20;;;18.30;96.10;;;;;;5071807;28;20466;-69
2022/06/07 01:47:31;;;;;;;1.10;1.00;;;18.30;96.10;;;;;;5074939;28;20211;-68
2022/06/07 01:49:59;;;;;;;2.27;1.47;;;18.20;95.90;;;;;;5068252;28;20579;-69
2022/06/07 01:52:27;;;;;;;1.17;1.13;;;18.20;96.10;;;;;;5067790;28;20543;-69
2022/06/07 01:54:58;;;;;;;1.23;1.13;;;18.20;96.10;;;;;;5052106;28;20235;-69
2022/06/07 01:57:25;;;;;;;1.07;1.07;;;18.20;96.20;;;;;;5066975;28;20982;-67
2022/06/07 01:59:55;;;;;;;1.10;1.00;;;18.20;96.30;;;;;;5052307;28;20441;-69
2022/06/07 02:02:26;;;;;;;1.10;0.90;;;18.10;96.20;;;;;;5067916;28;20446;-69
2022/06/07 02:04:54;;;;;;;1.13;1.03;;;18.10;96.30;;;;;;5061828;28;20449;-69
2022/06/07 02:07:21;;;;;;;1.10;1.10;;;18.10;96.30;;;;;;5065480;28;20991;-69
2022/06/07 02:09:52;;;;;;;1.70;1.00;;;18.10;96.40;;;;;;5061951;28;20440;-69
2022/06/07 02:12:19;;;;;;;1.23;1.13;;;18.00;96.40;;;;;;5066082;28;20446;-68
2022/06/07 02:14:45;;;;;;;1.07;1.07;;;18.00;96.50;;;;;;5063141;28;21179;-68
2022/06/07 02:17:11;;;;;;;1.00;1.00;;;18.00;96.50;;;;;;5060440;28;20215;-71
2022/06/07 02:19:52;;;;;;;1.10;1.00;;;18.00;96.50;;;;;;5060299;28;20524;-68
2022/06/07 02:22:19;;;;;;;1.20;1.13;;;18.00;96.50;;;;;;5068217;28;21023;-67
2022/06/07 02:24:44;;;;;;;1.73;1.03;;;17.90;96.50;;;;;;5067390;28;20446;-68
2022/06/07 02:27:14;;;;;;;1.53;1.10;;;17.90;96.60;;;;;;5068012;28;20692;-69
2022/06/07 02:29:43;;;;;;;1.50;1.40;;;17.80;96.80;;;;;;5064455;28;20622;-69
2022/06/07 02:32:15;;;;;;;1.00;0.90;;;17.80;96.80;;;;;;5034301;28;20454;-69
2022/06/07 02:34:45;;;;;;;1.63;1.53;;;17.80;96.80;;;;;;5060087;28;20874;-68
2022/06/07 02:37:12;;;;;;;1.00;1.00;;;17.80;96.80;;;;;;5066863;28;20515;-70
2022/06/07 02:39:38;;;;;;;1.17;1.07;;;17.80;96.80;;;;;;5067757;28;20457;-69
2022/06/07 02:42:06;;;;;;;1.30;1.20;;;17.80;96.80;;;;;;5067445;28;20453;-70
2022/06/07 02:44:33;;;;;;;0.90;0.90;;;17.80;96.90;;;;;;5066856;28;20465;-69
2022/06/07 02:46:58;;;;;;;3.50;1.20;;;17.80;96.80;;;;;;5067480;28;20493;-69
2022/06/07 02:49:24;;;;;;;1.40;1.30;;;17.80;96.90;;;;;;5058081;28;20466;-69
2022/06/07 02:51:50;;;;;;;1.10;1.10;;;17.80;96.90;;;;;;5073335;28;20514;-68
2022/06/07 02:54:16;;;;;;;1.90;1.30;;;17.80;97.00;;;;;;5070951;28;20298;-68
2022/06/07 02:56:42;;;;;;;2.83;1.50;;;17.70;96.90;;;;;;5070922;28;20243;-68
2022/06/07 02:59:07;;;;;;;1.60;1.40;;;17.70;97.00;;;;;;5054097;28;20233;-68
2022/06/07 03:01:33;;;;;;;2.30;1.30;;;17.60;97.10;;;;;;5071311;28;20222;-70
2022/06/07 03:04:01;;;;;;;1.30;1.20;;;17.70;97.10;;;;;;5052166;28;20230;-69
2022/06/07 03:06:31;;;;;;;1.40;1.30;;;17.70;97.50;;;;;;5064581;28;20548;-68
2022/06/07 03:08:57;;;;;;;1.20;1.10;;;17.60;97.20;;;;;;5058857;28;20547;-69
2022/06/07 03:11:23;;;;;;;1.23;1.13;;;17.50;97.30;;;;;;5065258;28;20298;-69
2022/06/07 03:13:49;;;;;;;1.40;1.30;;;17.60;97.20;;;;;;5065333;28;20215;-67
2022/06/07 03:16:21;;;;;;;1.20;1.10;;;17.60;97.20;;;;;;5056615;28;20461;-68
2022/06/07 03:18:49;;;;;;;1.03;1.03;;;17.60;97.20;;;;;;5071579;28;20480;-69
2022/06/07 03:21:16;;;;;;;1.20;1.10;;;17.60;97.20;;;;;;5067183;28;21038;-69
2022/06/07 03:23:43;;;;;;;1.20;1.10;;;17.50;97.30;;;;;;5049591;28;20883;-68
2022/06/07 03:26:12;;;;;;;1.63;1.40;;;17.50;97.40;;;;;;5073761;28;20458;-67
2022/06/07 03:29:00;;;;;;;3.00;1.60;;;17.50;97.30;;;;;;5053575;28;20849;-68
2022/06/07 03:31:26;;;;;;;1.10;1.10;;;17.50;97.30;;;;;;5050781;28;20450;-69
2022/06/07 03:33:56;;;;;;;1.47;1.37;;;17.50;97.30;;;;;;5060925;28;20226;-69
2022/06/07 03:36:28;;;;;;;1.13;1.13;;;17.50;97.20;;;;;;5050209;28;20473;-69
2022/06/07 03:39:02;;;;;;;1.40;1.30;;;17.50;97.40;;;;;;5066737;28;20501;-68
2022/06/07 03:41:31;;;;;;;1.50;1.40;;;17.50;97.50;;;;;;5066845;28;20915;-70
2022/06/07 03:44:07;;;;;;;2.53;1.50;;;17.50;97.60;;;;;;5061551;28;20482;-68
2022/06/07 03:46:35;;;;;;;2.20;1.30;;;17.40;97.50;;;;;;5073300;28;20457;-66
2022/06/07 03:49:03;;;;;;;1.10;1.00;;;17.40;97.50;;;;;;5070073;28;20466;-67
2022/06/07 03:51:30;;;;;;;1.93;1.30;;;17.40;97.70;;;;;;5051294;28;20466;-66
2022/06/07 03:53:57;;;;;;;1.40;1.30;;;17.30;97.70;;;;;;5064535;28;20503;-66
2022/06/07 03:56:26;;;;;;;1.43;1.10;;;17.30;97.70;;;;;;5069785;28;20456;-67
2022/06/07 03:58:55;;;;;;;3.13;1.33;;;17.30;97.80;;;;;;5070287;28;20519;-67
2022/06/07 04:01:25;;;;;;;1.53;1.30;;;17.30;97.80;;;;;;5052324;28;20454;-66
2022/06/07 04:03:54;;;;;;;1.63;1.43;;;17.30;97.80;;;;;;5069780;28;20473;-68
2022/06/07 04:09:45;;;;;;;1.10;1.07;;;17.30;97.90;;;;;;5063144;28;20473;-68
2022/06/07 04:12:19;;;;;;;0.70;0.70;;;17.30;98.00;;;;;;5070465;28;20446;-69
2022/06/07 04:14:46;;;;;;;1.10;0.93;;;17.20;98.00;;;;;;5069027;28;20973;-68
2022/06/07 04:17:13;;;;;;;2.10;1.10;;;17.20;98.10;;;;;;5065965;28;20863;-68
2022/06/07 04:19:43;;;;;;;1.17;1.10;;;17.10;98.30;;;;;;5076626;28;20495;-68
2022/06/07 04:22:11;;;;;;;1.20;1.10;;;17.10;98.50;;;;;;5069919;28;20518;-68
2022/06/07 04:24:42;;;;;;;1.27;1.17;;;17.10;98.50;;;;;;5049859;28;20442;-65
2022/06/07 04:27:08;;;;;;;1.30;1.20;;;17.10;98.60;;;;;;5077470;28;20471;-67
2022/06/07 04:29:36;;;;;;;1.30;1.20;;;17.10;98.80;;;;;;5048033;28;20239;-68
2022/06/07 04:32:02;;;;;;;6.77;1.37;;;17.00;98.90;;;;;;5069371;28;20454;-68
2022/06/07 04:34:32;;;;;;;1.30;1.10;;;17.00;98.90;;;;;;5061873;28;20461;-69
2022/06/07 04:36:58;;;;;;;1.50;1.40;;;17.00;99.10;;;;;;5059702;28;20796;-68
2022/06/07 04:39:26;;;;;;;1.30;1.20;;;17.00;99.10;;;;;;5052778;28;20459;-69
2022/06/07 04:42:00;;;;;;;1.07;1.03;;;17.00;99.20;;;;;;5069539;28;20829;-68
2022/06/07 04:44:35;;;;;;;1.47;1.33;;;17.00;99.10;;;;;;5066529;28;20476;-69
2022/06/07 04:47:02;;;;;;;1.83;1.57;;;17.00;99.10;;;;;;5070479;28;20461;-68
2022/06/07 04:49:28;;;;;;;1.57;1.47;;;17.00;99.30;;;;;;5051932;28;20556;-69
2022/06/07 04:51:55;;;;;;;1.37;1.27;;;17.00;99.40;;;;;;5068809;28;20452;-66
2022/06/07 04:54:27;;;;;;;1.03;1.03;;;17.00;99.50;;;;;;5055296;28;20452;-68
2022/06/07 04:56:55;;;;;;;4.50;1.27;;;17.00;99.50;;;;;;5063679;28;20488;-68
2022/06/07 04:59:22;;;;;;;1.53;1.43;;;17.00;99.70;;;;;;5066528;28;20537;-69
2022/06/07 05:01:55;;;;;;;1.23;1.13;;;17.00;99.80;;;;;;5067948;28;20446;-67
2022/06/07 05:04:25;;;;;;;2.53;1.40;;;17.00;99.80;;;;;;5053707;28;20458;-71
2022/06/07 05:06:52;;;;;;;1.37;1.27;;;17.00;99.90;;;;;;5069039;28;20489;-68
2022/06/07 05:09:30;;;;;;;1.63;1.20;;;17.00;99.90;;;;;;5067630;28;20483;-68
2022/06/07 05:12:08;;;;;;;1.20;1.20;;;17.00;99.90;;;;;;5068876;28;20510;-68
2022/06/07 05:14:39;;;;;;;1.50;1.40;;;17.00;99.90;;;;;;5064743;28;20466;-69
2022/06/07 05:17:05;;;;;;;1.30;1.20;;;17.00;99.90;;;;;;5068693;28;20514;-67
2022/06/07 05:19:33;;;;;;;1.77;1.30;;;17.00;99.90;;;;;;5051115;28;20310;-67
2022/06/07 05:22:06;;;;;;;1.30;1.20;;;16.90;99.90;;;;;;5059619;28;20454;-68
2022/06/07 05:24:37;;;;;;;1.10;1.10;;;16.90;99.90;;;;;;5075291;28;20988;-68
2022/06/07 05:27:05;;;;;;;1.23;1.20;;;17.00;99.90;;;;;;5049487;28;20580;-68
2022/06/07 05:29:55;;;;;;;1.23;1.10;;;17.00;99.90;;;;;;5066050;28;20465;-69
2022/06/07 05:32:43;;;;;;;1.93;1.10;;;17.00;99.90;;;;;;5065001;28;20512;-68
2022/06/07 05:35:14;;;;;;;1.87;1.33;;;17.00;99.90;;;;;;5059862;28;20501;-68
2022/06/07 05:37:43;;;;;;;1.20;1.10;;;17.00;99.90;;;;;;5064000;28;20458;-69
2022/06/07 05:40:18;;;;;;;1.70;1.60;;;17.00;99.90;;;;;;5062083;28;20457;-71
2022/06/07 05:42:45;;;;;;;1.40;1.30;;;17.00;99.90;;;;;;5065694;28;20473;-68
2022/06/07 05:45:15;;;;;;;1.40;1.30;;;17.00;99.90;;;;;;5056069;28;20544;-68
2022/06/07 05:47:42;;;;;;;1.40;1.30;;;17.00;99.90;;;;;;5059545;28;20472;-70
2022/06/07 05:50:09;;;;;;;0.97;0.97;;;17.00;99.90;;;;;;5060603;28;20453;-70
2022/06/07 05:52:40;;;;;;;1.30;1.20;;;17.10;99.90;;;;;;5057141;28;20447;-69
2022/06/07 05:55:08;;;;;;;1.27;1.27;;;17.10;99.90;;;;;;5048433;28;20462;-68
2022/06/07 05:57:35;;;;;;;3.60;1.40;;;17.20;99.90;;;;;;5069526;28;20445;-69
2022/06/07 06:00:06;;;;;;;1.43;1.30;;;17.20;99.90;;;;;;5059845;28;20464;-68
2022/06/07 06:02:38;;;;;;;1.23;1.13;;;17.20;99.90;;;;;;5064748;28;20708;-68
2022/06/07 06:05:06;;;;;;;1.30;1.20;;;17.30;99.90;;;;;;5055749;28;20819;-69
2022/06/07 06:07:35;;;;;;;2.70;1.87;;;17.30;99.90;;;;;;5057515;28;20451;-69
2022/06/07 06:12:50;;;;;;;4.70;1.30;;;17.30;99.90;;;;;;5080181;28;20220;-70
2022/06/07 06:15:18;;;;;;;3.10;1.07;;;17.40;99.90;;;;;;5059974;28;20859;-68
2022/06/07 06:17:45;;;;;;;1.83;1.60;;;17.40;99.90;;;;;;5052642;28;20446;-69
2022/06/07 06:20:20;;;;;;;2.33;1.60;;;17.50;99.90;;;;;;5069140;28;20503;-70
2022/06/07 06:22:49;;;;;;;3.40;1.70;;;17.50;99.90;;;;;;5064001;28;20842;-69
2022/06/07 06:25:15;;;;;;;1.13;1.10;;;17.50;99.90;;;;;;5077962;28;20817;-70
2022/06/07 06:27:41;;;;;;;1.23;1.13;;;17.50;99.90;;;;;;5063092;28;20445;-68
2022/06/07 06:30:10;;;;;;;1.50;1.40;;;17.60;99.90;;;;;;5061055;28;20961;-68
2022/06/07 06:32:43;;;;;;;1.10;1.07;;;17.60;99.90;;;;;;5056154;28;20457;-70
2022/06/07 06:35:10;;;;;;;1.33;1.23;;;17.60;99.90;;;;;;5066874;28;20507;-69
2022/06/07 06:37:36;;;;;;;1.90;1.53;;;17.60;99.90;;;;;;5059564;28;20507;-68
2022/06/07 06:40:06;;;;;;;1.23;1.20;;;17.70;99.90;;;;;;5063172;28;20474;-68
2022/06/07 06:42:38;;;;;;;1.50;1.37;;;17.70;99.90;;;;;;5066960;28;20453;-69
2022/06/07 06:45:22;;;;;;;1.57;1.30;;;17.70;99.90;;;;;;5058575;28;20504;-68
2022/06/07 06:47:53;;;;;;;1.43;1.33;;;17.80;99.90;;;;;;5052660;28;20478;-69
2022/06/07 06:50:19;;;;;;;1.60;1.50;;;17.80;99.90;;;;;;5063167;28;20663;-69
2022/06/07 06:52:45;;;;;;;1.77;1.67;;;17.90;99.90;;;;;;5061176;28;20820;-69
2022/06/07 06:55:12;;;;;;;3.00;1.20;;;18.00;99.90;;;;;;5061823;28;20522;-70
2022/06/07 06:57:37;;;;;;;3.80;1.93;;;18.00;99.90;;;;;;5062955;28;20984;-69
2022/06/07 07:00:08;;;;;;;2.60;1.43;;;18.10;99.90;;;;;;5049664;28;20698;-67
2022/06/07 07:02:37;;;;;;;1.40;1.30;;;18.10;99.90;;;;;;5048160;28;21075;-68
2022/06/07 07:05:08;;;;;;;1.73;1.63;;;18.20;99.90;;;;;;5057862;28;20445;-69
2022/06/07 07:07:35;;;;;;;2.90;1.00;;;18.20;99.90;;;;;;5074144;28;20454;-68
2022/06/07 07:10:01;;;;;;;1.80;1.30;;;18.30;99.90;;;;;;5056367;28;20469;-69
2022/06/07 07:12:28;;;;;;;1.20;1.20;;;18.40;99.90;;;;;;5056195;28;20458;-68
2022/06/07 07:15:01;;;;;;;3.23;1.60;;;18.40;99.90;;;;;;5055255;28;20459;-69
2022/06/07 07:17:36;;;;;;;1.43;1.33;;;18.50;99.90;;;;;;5061053;28;20452;-68
2022/06/07 07:20:04;;;;;;;1.67;1.57;;;18.60;99.90;;;;;;5066967;28;20441;-68
2022/06/07 07:22:35;;;;;;;4.60;1.93;;;18.60;99.90;;;;;;5048790;28;20215;-69
2022/06/07 07:25:04;;;;;;;1.50;1.37;;;18.70;99.90;;;;;;5049248;28;20473;-68
2022/06/07 07:27:29;;;;;;;1.50;1.40;;;18.80;99.90;;;;;;5048238;28;21002;-68
2022/06/07 07:29:56;;;;;;;2.60;1.30;;;18.80;99.90;;;;;;5056637;28;20460;-68
2022/06/07 07:32:26;;;;;;;1.83;1.53;;;18.90;99.90;;;;;;5059387;28;20458;-69
2022/06/07 07:34:54;;;;;;;2.40;1.40;;;19.00;99.90;;;;;;5061751;28;20451;-70
2022/06/07 07:37:20;;;;;;;1.10;1.00;;;19.00;99.90;;;;;;5060954;28;20511;-69
2022/06/07 07:39:49;;;;;;;2.40;1.30;;;19.10;99.90;;;;;;5060178;28;20510;-68
2022/06/07 07:42:19;;;;;;;1.77;1.47;;;19.20;99.90;;;;;;5064192;28;20458;-67
2022/06/07 07:44:56;;;;;;;2.20;1.87;;;19.30;99.90;;;;;;5045900;28;20465;-70
2022/06/07 07:47:23;;;;;;;1.57;1.47;;;19.40;99.90;;;;;;5065670;28;20449;-69
2022/06/07 07:49:48;;;;;;;1.53;1.43;;;19.40;99.90;;;;;;5060533;28;20450;-68
2022/06/07 07:52:18;;;;;;;1.60;1.50;;;19.50;99.90;;;;;;5061758;28;20211;-69
2022/06/07 07:54:46;;;;;;;1.43;1.30;;;19.60;99.90;;;;;;5061195;28;20465;-68
2022/06/07 07:57:12;;;;;;;1.53;1.43;;;19.80;99.90;;;;;;5063850;28;20530;-71
2022/06/07 07:59:38;;;;;;;1.67;1.57;;;19.90;99.90;;;;;;5055113;28;20232;-71
2022/06/07 08:02:13;;;;;;;1.33;1.27;;;19.90;99.90;;;;;;5065727;28;20590;-68
2022/06/07 08:04:39;;;;;;;1.90;1.43;;;20.00;99.90;;;;;;5062848;28;20457;-69
2022/06/07 08:07:05;;;;;;;1.90;1.40;;;20.20;99.90;;;;;;5075607;28;20502;-67
2022/06/07 08:09:31;;;;;;;2.60;1.40;;;20.20;99.90;;;;;;5051703;28;20231;-69
2022/06/07 08:11:58;;;;;;;1.33;1.23;;;20.30;99.90;;;;;;5074588;28;20638;-70
2022/06/07 08:14:24;;;;;;;1.47;1.37;;;20.40;99.90;;;;;;5072385;28;20227;-69
2022/06/07 08:16:49;;;;;;;1.20;1.10;;;20.40;99.90;;;;;;5065084;28;20462;-69
2022/06/07 08:19:18;;;;;;;1.67;1.57;;;20.50;99.90;;;;;;5059462;28;20279;-70
2022/06/07 08:21:44;;;;;;;1.30;1.20;;;20.60;99.90;;;;;;5068295;28;20818;-69
2022/06/07 08:24:10;;;;;;;2.50;1.70;;;20.70;99.70;;;;;;5074507;28;20616;-72
2022/06/07 08:26:36;;;;;;;1.63;1.53;;;20.80;99.70;;;;;;5075732;28;20223;-70
2022/06/07 08:29:02;;;;;;;1.97;1.37;;;20.80;99.80;;;;;;5078696;28;20469;-69
2022/06/07 08:31:29;;;;;;;1.57;1.47;;;21.00;99.70;;;;;;5063018;28;20254;-69
2022/06/07 08:39:26;;;;;;;1.30;1.20;;;21.30;99.50;;;;;;5058445;28;20446;-68
2022/06/07 08:42:13;;;;;;;2.00;1.33;;;21.40;99.20;;;;;;5054028;28;20466;-70
2022/06/07 08:44:58;;;;;;;5.07;1.60;;;21.40;98.60;;;;;;5056080;28;20995;-70
2022/06/07 08:47:35;;;;;;;1.57;1.40;;;21.40;98.30;;;;;;5062598;28;20464;-68
2022/06/07 08:50:18;;;;;;;3.27;1.40;;;21.40;97.50;;;;;;5071110;28;20457;-68
2022/06/07 08:52:46;;;;;;;1.40;1.30;;;21.40;98.10;;;;;;5075484;28;20424;-68
2022/06/07 08:55:16;;;;;;;5.30;1.50;;;21.50;98.30;;;;;;5061053;28;20508;-68
2022/06/07 08:57:47;;;;;;;1.80;1.47;;;21.60;98.10;;;;;;5056007;28;20442;-70
2022/06/07 09:00:23;;;;;;;1.53;1.30;;;21.70;97.60;;;;;;5050758;28;20461;-70
2022/06/07 09:03:14;;;;;;;3.00;1.23;;;21.80;97.70;;;;;;5061823;28;20461;-69
2022/06/07 09:05:40;;;;;;;1.20;1.20;;;21.90;97.50;;;;;;5057651;28;20466;-69
2022/06/07 09:08:05;;;;;;;3.50;1.27;;;22.00;97.40;;;;;;5054426;28;20472;-69
2022/06/07 09:13:21;;;;;;;1.47;1.37;;;22.10;97.30;;;;;;5058784;28;20241;-71
2022/06/07 09:15:51;;;;;;;1.60;1.50;;;22.20;97.40;;;;;;5074048;28;20444;-69
2022/06/07 09:18:19;;;;;;;1.30;1.20;;;22.40;97.40;;;;;;5069120;28;20510;-69
2022/06/07 09:20:50;;;;;;;3.13;1.20;;;22.50;97.40;;;;;;5058299;28;20509;-68
2022/06/07 09:23:36;;;;;;;4.00;1.57;;;22.60;96.90;;;;;;5045417;28;20450;-69
2022/06/07 09:26:37;;;;;;;1.27;1.17;;;22.60;96.30;;;;;;5048848;28;20461;-68
2022/06/07 09:29:05;;;;;;;1.60;1.20;;;22.60;96.20;;;;;;5040883;28;20476;-68
2022/06/07 09:31:30;;;;;;;7.63;1.50;;;22.60;95.80;;;;;;5048496;28;20454;-68
2022/06/07 09:34:07;;;;;;;1.47;1.37;;;22.60;95.70;;;;;;5059606;28;20483;-68
2022/06/07 09:36:37;;;;;;;2.77;1.67;;;22.60;95.90;;;;;;5066722;28;20246;-68
2022/06/07 09:39:15;;;;;;;1.60;1.47;;;22.70;96.00;;;;;;5060781;28;20459;-69
2022/06/07 09:41:46;;;;;;;2.73;1.20;;;22.70;95.60;;;;;;5072664;28;20530;-68
2022/06/07 09:44:34;;;;;;;2.27;1.47;;;22.70;94.60;;;;;;5064960;28;20487;-67
2022/06/07 09:47:04;;;;;;;2.67;1.13;;;22.70;94.90;;;;;;5059882;28;20457;-67
2022/06/07 09:49:43;;;;;;;1.40;1.30;;;22.70;94.90;;;;;;5057708;28;20464;-68
2022/06/07 09:52:41;;;;;;;1.80;1.60;;;22.80;95.30;;;;;;5060644;28;20880;-68
2022/06/07 09:55:17;;;;;;;1.53;1.23;;;22.90;94.90;;;;;;5040590;28;20587;-68
2022/06/07 09:58:10;;;;;;;3.47;1.50;;;22.90;94.40;;;;;;5067662;28;20453;-70
2022/06/07 10:00:39;;;;;;;1.50;1.40;;;22.80;94.40;;;;;;5068666;28;20465;-69
2022/06/07 10:03:13;;;;;;;2.20;1.27;;;22.90;94.90;;;;;;5061321;28;20491;-70
2022/06/07 10:06:03;;;;;;;1.90;1.10;;;23.00;94.90;;;;;;5079670;28;20525;-70
2022/06/07 10:08:44;;;;;;;1.60;1.20;;;23.10;94.80;;;;;;5062627;28;20474;-73
2022/06/07 10:11:27;;;;;;;1.43;1.30;;;23.20;94.70;;;;;;5068385;28;20464;-72
2022/06/07 10:14:10;;;;;;;2.50;1.30;;;23.10;94.40;;;;;;5065175;28;20461;-68
2022/06/07 10:16:35;;;;;;;1.33;1.20;;;23.10;94.30;;;;;;5063061;28;20921;-68
2022/06/07 10:19:34;;;;;;;4.00;1.43;;;23.10;94.30;;;;;;5058293;28;20457;-70
2022/06/07 10:22:20;;;;;;;1.73;1.50;;;23.10;94.40;;;;;;5052652;28;20245;-69
2022/06/07 10:25:04;;;;;;;2.07;1.47;;;23.10;94.60;;;;;;5064089;28;20474;-68
2022/06/07 10:28:07;;;;;;;3.00;1.73;;;23.10;94.50;;;;;;5064589;28;20543;-70
2022/06/07 10:30:56;;;;;;;1.57;1.47;;;23.10;94.80;;;;;;5051136;28;20870;-68
2022/06/07 10:33:42;;;;;;;1.97;1.87;;;23.20;94.80;;;;;;5063436;28;20455;-69
2022/06/07 10:36:35;;;;;;;2.00;1.80;;;23.20;94.10;;;;;;5059934;28;20964;-68
2022/06/07 10:39:14;;;;;;;2.13;1.60;;;23.20;94.40;;;;;;5064169;28;20457;-68
2022/06/07 10:41:52;;;;;;;2.10;1.57;;;23.20;94.10;;;;;;5057985;28;20927;-69
2022/06/07 10:44:29;;;;;;;1.40;1.30;;;23.30;94.20;;;;;;5064728;28;20491;-69
2022/06/07 10:46:57;;;;;;;1.97;1.77;;;23.40;94.20;;;;;;5065003;28;20447;-69
2022/06/07 10:49:40;;;;;;;1.77;1.67;;;23.50;94.30;;;;;;5055407;28;20489;-69
2022/06/07 10:52:29;;;;;;;3.47;1.50;;;23.60;94.40;;;;;;5046701;28;20492;-68
2022/06/07 10:55:28;;;;;;;1.50;1.43;;;23.60;94.00;;;;;;5068477;28;20560;-68
2022/06/07 10:57:59;;;;;;;1.43;1.13;;;23.70;94.00;;;;;;5056146;28;20977;-68
2022/06/07 11:00:43;;;;;;;1.40;1.30;;;23.70;94.20;;;;;;5057607;28;20476;-70
2022/06/07 11:03:26;;;;;;;1.50;1.40;;;23.80;93.90;;;;;;5063210;28;20460;-70
2022/06/07 11:09:21;;;;;;;1.33;1.23;;;23.70;92.20;;;;;;5049288;28;20470;-71
2022/06/07 11:11:56;;;;;;;2.07;1.30;;;23.60;92.50;;;;;;5024666;28;20547;-70
2022/06/07 11:14:42;;;;;;;1.90;1.30;;;23.70;93.10;;;;;;5061560;28;20533;-69
2022/06/07 11:17:26;;;;;;;1.80;1.70;;;23.80;93.70;;;;;;5065801;28;20485;-67
2022/06/07 11:19:52;;;;;;;1.90;1.40;;;23.90;93.70;;;;;;5057867;28;20447;-69
2022/06/07 11:22:21;;;;;;;2.20;1.70;;;24.00;93.80;;;;;;5081632;28;20460;-69
2022/06/07 11:25:15;;;;;;;1.33;1.23;;;24.20;93.70;;;;;;5066105;28;20464;-68
2022/06/07 11:27:52;;;;;;;1.70;1.60;;;24.30;92.40;;;;;;5062230;28;20445;-70
2022/06/07 11:30:25;;;;;;;1.63;1.53;;;24.40;93.50;;;;;;5069442;28;20443;-72
2022/06/07 11:32:54;;;;;;;1.27;1.23;;;24.60;93.30;;;;;;5066332;28;20468;-70
2022/06/07 11:36:10;;;;;;;1.40;1.30;;;24.70;93.00;;;;;;5057177;28;20476;-71
2022/06/07 11:39:00;;;;;;;3.13;1.77;;;24.80;92.80;;;;;;5050607;28;20799;-69
2022/06/07 11:41:38;;;;;;;1.60;1.33;;;24.80;93.20;;;;;;5037779;28;20453;-69
2022/06/07 11:44:12;;;;;;;2.00;1.50;;;24.80;93.40;;;;;;5076501;28;20991;-70
2022/06/07 11:46:49;;;;;;;2.10;1.90;;;24.80;92.90;;;;;;5058568;28;20468;-69
2022/06/07 11:49:22;;;;;;;1.80;1.70;;;24.70;93.00;;;;;;5062688;28;21143;-67
2022/06/07 11:51:55;;;;;;;1.83;1.70;;;24.70;93.10;;;;;;5064830;28;20540;-70
2022/06/07 11:54:38;;;;;;;1.70;1.60;;;24.60;92.50;;;;;;5057190;28;20503;-68
2022/06/07 11:57:23;;;;;;;2.00;1.80;;;24.50;92.20;;;;;;5054796;28;20900;-68
2022/06/07 11:59:52;;;;;;;2.10;1.30;;;24.50;92.50;;;;;;5064207;28;20516;-69
2022/06/07 12:02:17;;;;;;;1.30;1.30;;;24.60;92.90;;;;;;5064861;28;20453;-68
2022/06/07 12:04:47;;;;;;;1.60;1.30;;;24.70;92.30;;;;;;5062348;28;21002;-69
2022/06/07 12:07:37;;;;;;;1.77;1.67;;;24.80;92.40;;;;;;5057387;28;20227;-69
2022/06/07 12:10:18;;;;;;;2.70;2.00;;;24.90;92.50;;;;;;5067821;28;20481;-69
2022/06/07 12:13:10;;;;;;;5.90;2.30;;;25.00;91.80;;;;;;5075328;28;20446;-68
2022/06/07 12:15:48;;;;;;;1.40;1.30;;;25.00;91.60;;;;;;5068654;28;20564;-68
2022/06/07 12:18:26;;;;;;;4.00;1.90;;;25.00;91.60;;;;;;5064227;28;20437;-67
2022/06/07 12:20:56;;;;;;;2.13;1.93;;;25.10;91.60;;;;;;5058304;28;20456;-68
2022/06/07 12:23:34;;;;;;;1.23;1.23;;;25.20;91.50;;;;;;5074849;28;20453;-69
2022/06/07 12:26:06;;;;;;;1.53;1.43;;;25.20;92.20;;;;;;5070989;28;20483;-68
2022/06/07 12:28:35;;;;;;;1.33;1.30;;;25.40;92.00;;;;;;5067847;28;20485;-68
2022/06/07 12:31:15;;;;;;;2.17;1.50;;;25.50;91.90;;;;;;5064341;28;20461;-69
2022/06/07 12:33:50;;;;;;;2.10;1.70;;;25.60;91.90;;;;;;5061706;28;20862;-70
2022/06/07 12:36:21;;;;;;;1.60;1.47;;;25.70;91.90;;;;;;5067811;28;20815;-71
2022/06/07 12:38:48;;;;;;;2.00;1.60;;;25.90;91.80;;;;;;5073132;28;20488;-68
2022/06/07 12:41:17;;;;;;;1.80;1.70;;;25.90;91.50;;;;;;5042033;28;20498;-70
2022/06/07 12:43:46;;;;;;;1.73;1.40;;;26.00;91.50;;;;;;5061818;28;20453;-67
2022/06/07 12:46:20;;;;;;;1.60;1.50;;;26.20;91.90;;;;;;5058858;28;20503;-71
2022/06/07 12:48:46;;;;;;;1.60;1.50;;;26.20;91.00;;;;;;5062904;28;20492;-71
2022/06/07 12:51:39;;;;;;;1.67;1.57;;;26.20;91.20;;;;;;5043886;28;21035;-69
2022/06/07 12:54:16;;;;;;;2.87;1.73;;;26.00;91.30;;;;;;5061515;28;21024;-69
2022/06/07 12:56:44;;;;;;;1.53;1.43;;;26.00;91.70;;;;;;5054350;28;20461;-72
2022/06/07 12:59:39;;;;;;;2.03;1.30;;;26.10;91.30;;;;;;5056689;28;20449;-68
2022/06/07 13:02:23;;;;;;;1.63;1.53;;;26.00;91.20;;;;;;5049041;28;20460;-70
2022/06/07 13:04:56;;;;;;;1.50;1.40;;;26.10;91.10;;;;;;5053479;28;20445;-68
2022/06/07 13:07:32;;;;;;;4.33;1.67;;;26.00;90.90;;;;;;5063977;28;20543;-67
2022/06/07 13:10:00;;;;;;;2.07;1.60;;;26.00;91.00;;;;;;5061516;28;20485;-68
2022/06/07 13:12:28;;;;;;;1.55;1.45;;;26.00;91.20;;;;;;5068615;28;20458;-69
2022/06/07 13:14:54;;;;;;;1.80;1.70;;;26.00;91.70;;;;;;5073182;28;20219;-68
2022/06/07 13:17:55;;;;;;;1.80;1.37;;;26.10;91.50;;;;;;5062197;28;20453;-67
2022/06/07 13:20:35;;;;;;;1.57;1.53;;;26.20;91.60;;;;;;5068519;28;20453;-70
2022/06/07 13:23:10;;;;;;;1.73;1.50;;;26.20;91.50;;;;;;5057320;28;20496;-68
2022/06/07 13:25:36;;;;;;;2.80;1.80;;;26.10;91.20;;;;;;5059879;28;20479;-69
2022/06/07 13:28:02;;;;;;;1.60;1.50;;;26.10;91.30;;;;;;5067389;28;20481;-70
2022/06/07 13:30:36;;;;;;;1.50;1.40;;;26.10;91.30;;;;;;5059891;28;20222;-70
2022/06/07 13:33:07;;;;;;;1.53;1.43;;;26.00;91.50;;;;;;5070366;28;20608;-70
2022/06/07 13:35:41;;;;;;;1.60;1.50;;;26.00;91.90;;;;;;5055105;28;20470;-68
2022/06/07 13:38:26;;;;;;;1.50;1.27;;;26.00;91.90;;;;;;5064095;28;20470;-70